createdAt,value
2023-05-15T00:01:17.632Z,5.70
2023-05-15T00:03:50.219Z,5.00
2023-05-15T00:06:23.166Z,5.20
2023-05-15T00:08:55.651Z,5.40
2023-05-15T00:11:28.030Z,4.95
2023-05-15T00:14:00.066Z,5.20
2023-05-15T00:16:32.320Z,5.40
2023-05-15T00:19:04.678Z,5.20
2023-05-15T00:21:37.186Z,5.00
2023-05-15T00:24:09.192Z,5.25
2023-05-15T00:26:41.274Z,5.55
2023-05-15T00:29:13.579Z,4.85
2023-05-15T00:31:45.793Z,4.63
2023-05-15T00:34:17.947Z,5.45
2023-05-15T00:36:50.030Z,5.72
2023-05-15T00:39:22.189Z,5.00
2023-05-15T00:41:54.996Z,5.90
2023-05-15T00:44:28.592Z,5.90
2023-05-15T00:47:03.873Z,6.22
2023-05-15T00:49:37.903Z,6.43
2023-05-15T00:52:10.966Z,6.43
2023-05-15T00:54:43.088Z,6.47
2023-05-15T00:57:16.063Z,6.60
2023-05-15T00:59:52.084Z,5.90
2023-05-15T01:02:25.143Z,5.53
2023-05-15T01:04:57.578Z,6.07
2023-05-15T01:07:34.943Z,4.88
2023-05-15T01:10:12.618Z,5.72
2023-05-15T01:12:47.353Z,5.68
2023-05-15T01:15:21.606Z,6.25
2023-05-15T01:17:54.485Z,6.40
2023-05-15T01:20:27.503Z,6.60
2023-05-15T01:23:15.727Z,6.03
2023-05-15T01:26:03.663Z,5.95
2023-05-15T01:29:03.555Z,5.93
2023-05-15T01:31:46.284Z,6.70
2023-05-15T01:34:27.365Z,6.53
2023-05-15T01:37:13.080Z,6.95
2023-05-15T01:39:51.988Z,7.40
2023-05-15T01:42:33.329Z,6.60
2023-05-15T01:45:11.394Z,7.38
2023-05-15T01:47:46.302Z,6.43
2023-05-15T01:50:20.516Z,6.13
2023-05-15T01:52:56.527Z,6.82
2023-05-15T01:55:30.531Z,7.07
2023-05-15T01:58:04.561Z,5.65
2023-05-15T02:00:39.141Z,6.15
2023-05-15T02:03:12.618Z,5.90
2023-05-15T02:05:46.852Z,5.53
2023-05-15T02:08:21.709Z,6.30
2023-05-15T02:10:55.697Z,5.40
2023-05-15T02:13:31.976Z,6.28
2023-05-15T02:16:05.020Z,5.25
2023-05-15T02:18:38.180Z,5.30
2023-05-15T02:21:10.568Z,5.63
2023-05-15T02:23:42.682Z,5.60
2023-05-15T02:26:31.024Z,4.97
2023-05-15T02:29:40.535Z,6.07
2023-05-15T02:32:41.545Z,5.38
2023-05-15T02:35:36.104Z,6.38
2023-05-15T02:38:25.260Z,5.20
2023-05-15T02:41:02.402Z,6.03
2023-05-15T02:43:37.245Z,5.82
2023-05-15T02:46:11.902Z,4.68
2023-05-15T02:48:44.658Z,5.70
2023-05-15T02:51:17.124Z,5.18
2023-05-15T02:53:49.767Z,5.43
2023-05-15T02:56:22.900Z,6.05
2023-05-15T02:58:55.155Z,5.80
2023-05-15T03:01:27.431Z,5.45
2023-05-15T03:03:59.557Z,5.07
2023-05-15T03:06:31.931Z,5.60
2023-05-15T03:09:04.118Z,5.82
2023-05-15T03:11:36.247Z,6.13
2023-05-15T03:14:08.311Z,5.75
2023-05-15T03:16:40.417Z,5.43
2023-05-15T03:19:12.650Z,5.85
2023-05-15T03:21:44.720Z,5.90
2023-05-15T03:24:17.213Z,5.60
2023-05-15T03:26:49.367Z,6.10
2023-05-15T03:29:21.440Z,5.75
2023-05-15T03:31:53.462Z,6.60
2023-05-15T03:34:25.536Z,6.30
2023-05-15T03:36:57.691Z,5.72
2023-05-15T03:39:29.705Z,5.05
2023-05-15T03:42:01.638Z,6.10
2023-05-15T03:44:33.770Z,5.53
2023-05-15T03:47:06.248Z,6.00
2023-05-15T03:49:38.244Z,6.50
2023-05-15T03:52:10.588Z,5.97
2023-05-15T03:54:43.025Z,6.10
2023-05-15T03:57:15.187Z,5.90
2023-05-15T03:59:47.237Z,6.00
2023-05-15T04:02:19.306Z,6.10
2023-05-15T04:04:51.671Z,6.95
2023-05-15T04:07:24.053Z,6.30
2023-05-15T04:09:56.110Z,6.53
2023-05-15T04:12:35.528Z,6.25
2023-05-15T04:15:23.058Z,6.40
2023-05-15T04:17:56.292Z,7.68
2023-05-15T04:20:28.443Z,6.90
2023-05-15T04:23:00.600Z,7.00
2023-05-15T04:25:33.549Z,7.57
2023-05-15T04:28:06.596Z,6.80
2023-05-15T04:30:38.627Z,7.03
2023-05-15T04:33:11.272Z,7.22
2023-05-15T04:35:43.620Z,7.40
2023-05-15T04:38:16.184Z,8.02
2023-05-15T04:40:48.504Z,7.18
2023-05-15T04:43:20.899Z,6.60
2023-05-15T04:45:53.049Z,7.93
2023-05-15T04:48:25.597Z,7.35
2023-05-15T04:50:57.722Z,7.72
2023-05-15T04:53:29.776Z,7.57
2023-05-15T04:56:02.031Z,7.18
2023-05-15T04:58:34.212Z,7.72
2023-05-15T05:01:06.367Z,7.60
2023-05-15T05:03:38.677Z,6.88
2023-05-15T05:06:11.345Z,8.02
2023-05-15T05:08:43.434Z,7.25
2023-05-15T05:11:15.493Z,8.63
2023-05-15T05:13:47.845Z,7.15
2023-05-15T05:16:20.309Z,7.18
2023-05-15T05:18:52.465Z,7.70
2023-05-15T05:21:24.468Z,8.32
2023-05-15T05:23:56.604Z,8.07
2023-05-15T05:26:29.365Z,7.18
2023-05-15T05:29:01.580Z,7.60
2023-05-15T05:31:33.767Z,7.55
2023-05-15T05:34:06.582Z,8.90
2023-05-15T05:36:40.195Z,8.00
2023-05-15T05:39:12.447Z,8.15
2023-05-15T05:41:45.289Z,8.25
2023-05-15T05:44:17.480Z,8.60
2023-05-15T05:46:49.759Z,8.30
2023-05-15T05:49:25.258Z,7.70
2023-05-15T05:51:57.802Z,9.27
2023-05-15T05:54:38.658Z,8.70
2023-05-15T05:57:11.166Z,7.40
2023-05-15T05:59:43.656Z,7.60
2023-05-15T06:02:17.774Z,7.88
2023-05-15T06:04:54.095Z,6.95
2023-05-15T06:07:31.350Z,8.50
2023-05-15T06:10:07.636Z,7.78
2023-05-15T06:12:44.759Z,6.85
2023-05-15T06:15:17.728Z,6.28
2023-05-15T06:17:51.231Z,6.47
2023-05-15T06:20:25.493Z,6.30
2023-05-15T06:22:59.371Z,6.17
2023-05-15T06:25:34.001Z,5.67
2023-05-15T06:28:06.786Z,5.50
2023-05-15T06:30:39.305Z,5.60
2023-05-15T06:33:12.468Z,6.13
2023-05-15T06:35:49.200Z,5.83
2023-05-15T06:38:21.570Z,5.60
2023-05-15T06:40:58.662Z,5.83
2023-05-15T06:43:33.228Z,5.03
2023-05-15T06:46:06.767Z,5.60
2023-05-15T06:48:38.929Z,4.97
2023-05-15T06:51:11.476Z,4.63
2023-05-15T06:53:44.353Z,5.23
2023-05-15T06:56:17.022Z,5.10
2023-05-15T06:58:49.258Z,4.53
2023-05-15T07:01:23.057Z,5.10
2023-05-15T07:03:57.308Z,5.10
2023-05-15T07:06:36.333Z,4.37
2023-05-15T07:09:11.184Z,4.93
2023-05-15T07:11:46.660Z,4.90
2023-05-15T07:14:19.545Z,4.80
2023-05-15T07:16:52.303Z,4.33
2023-05-15T07:19:24.648Z,4.77
2023-05-15T07:21:57.847Z,4.70
2023-05-15T07:24:30.082Z,3.97
2023-05-15T07:27:02.549Z,4.37
2023-05-15T07:29:34.749Z,4.40
2023-05-15T07:32:07.480Z,4.10
2023-05-15T07:34:40.432Z,4.30
2023-05-15T07:37:14.898Z,5.07
2023-05-15T07:39:49.500Z,4.80
2023-05-15T07:42:23.090Z,4.00
2023-05-15T07:44:56.093Z,3.60
2023-05-15T07:47:28.548Z,3.67
2023-05-15T07:50:02.905Z,3.77
2023-05-15T07:52:38.861Z,4.27
2023-05-15T07:55:12.440Z,4.50
2023-05-15T08:00:25.179Z,4.40
2023-05-15T08:02:59.093Z,3.80
2023-05-15T08:05:31.436Z,3.70
2023-05-15T08:08:03.843Z,3.60
2023-05-15T08:10:36.034Z,3.60
2023-05-15T08:13:08.272Z,3.57
2023-05-15T08:15:40.446Z,3.53
2023-05-15T08:18:12.653Z,4.10
2023-05-15T08:20:44.707Z,3.90
2023-05-15T08:23:18.095Z,4.13
2023-05-15T08:25:50.944Z,3.63
2023-05-15T08:28:23.136Z,3.63
2023-05-15T08:30:58.826Z,3.67
2023-05-15T08:33:31.838Z,3.80
2023-05-15T08:36:04.519Z,3.10
2023-05-15T08:38:37.510Z,3.60
2023-05-15T08:41:41.259Z,3.80
2023-05-15T08:44:23.116Z,3.70
2023-05-15T08:46:56.776Z,3.77
2023-05-15T08:49:51.524Z,3.67
2023-05-15T08:52:29.877Z,4.00
2023-05-15T08:55:05.982Z,5.13
2023-05-15T08:57:39.456Z,4.00
2023-05-15T09:00:14.996Z,4.00
2023-05-15T09:02:48.846Z,4.80
2023-05-15T09:05:22.130Z,4.23
2023-05-15T09:07:55.814Z,4.33
2023-05-15T09:10:31.043Z,3.50
2023-05-15T09:13:06.181Z,3.57
2023-05-15T09:15:41.253Z,4.40
2023-05-15T09:18:14.992Z,4.00
2023-05-15T09:20:49.228Z,4.40
2023-05-15T09:23:24.991Z,4.40
2023-05-15T09:25:59.134Z,4.17
2023-05-15T09:28:32.917Z,4.40
2023-05-15T09:31:06.029Z,4.17
2023-05-15T09:33:41.614Z,4.03
2023-05-15T09:36:22.127Z,3.80
2023-05-15T09:38:59.700Z,3.50
2023-05-15T09:41:32.256Z,3.93
2023-05-15T09:44:05.342Z,4.50
2023-05-15T09:46:51.522Z,5.00
2023-05-15T09:49:24.257Z,4.27
2023-05-15T09:52:00.264Z,5.03
2023-05-15T09:54:32.975Z,4.87
2023-05-15T09:57:14.288Z,4.83
2023-05-15T09:59:49.165Z,4.90
2023-05-15T13:11:45.136Z,4.57
2023-05-15T13:14:18.266Z,4.17
2023-05-15T13:16:51.444Z,4.40
2023-05-15T13:19:23.896Z,4.33
2023-05-15T13:21:56.450Z,4.40
2023-05-15T13:24:29.549Z,4.10
2023-05-15T13:27:02.171Z,4.00
2023-05-15T13:29:35.073Z,5.13
2023-05-15T13:32:07.621Z,3.67
2023-05-15T13:34:39.664Z,4.10
2023-05-15T13:37:12.307Z,4.50
2023-05-15T13:39:46.350Z,5.50
2023-05-15T13:42:18.816Z,4.90
2023-05-15T13:44:51.028Z,4.60
2023-05-15T13:47:23.293Z,4.37
2023-05-15T13:49:55.725Z,4.90
2023-05-15T13:52:28.189Z,4.47
2023-05-15T13:55:00.341Z,4.70
2023-05-15T13:57:33.071Z,4.87
2023-05-15T14:00:12.334Z,4.27
2023-05-15T14:02:46.419Z,4.30
2023-05-15T14:05:19.293Z,3.70
2023-05-15T14:07:51.418Z,4.00
2023-05-15T14:10:26.736Z,4.00
2023-05-15T14:13:01.003Z,4.07
2023-05-15T14:15:33.643Z,4.23
2023-05-15T14:18:06.445Z,4.60
2023-05-15T14:20:39.279Z,5.07
2023-05-15T14:23:11.659Z,5.33
2023-05-15T14:25:44.058Z,5.10
2023-05-15T14:28:18.096Z,5.43
2023-05-15T14:30:53.445Z,5.50
2023-05-15T14:33:26.735Z,4.83
2023-05-15T14:35:59.484Z,4.40
2023-05-15T14:38:33.136Z,4.87
2023-05-15T14:41:06.139Z,5.53
2023-05-15T14:43:38.979Z,5.10
2023-05-15T14:46:11.679Z,4.80
2023-05-15T14:48:48.819Z,4.63
2023-05-15T14:51:24.672Z,3.60
2023-05-15T14:54:02.198Z,3.70
2023-05-15T14:56:39.578Z,3.97
2023-05-15T14:59:14.877Z,3.80
2023-05-15T15:01:49.631Z,4.73
2023-05-15T15:04:26.668Z,4.37
2023-05-15T15:07:09.145Z,3.97
2023-05-15T15:09:42.671Z,4.27
2023-05-15T15:12:18.200Z,3.53
2023-05-15T15:14:52.669Z,3.90
2023-05-15T15:17:29.070Z,4.20
2023-05-15T15:20:05.661Z,3.97
2023-05-15T15:22:42.320Z,3.20
2023-05-15T15:25:14.900Z,3.90
2023-05-15T15:27:49.662Z,3.60
2023-05-15T15:30:22.217Z,4.33
2023-05-15T15:32:55.915Z,5.13
2023-05-15T15:35:28.825Z,6.93
2023-05-15T15:38:01.636Z,7.03
2023-05-15T15:40:36.407Z,7.70
2023-05-15T15:43:08.911Z,7.30
2023-05-15T15:45:42.127Z,6.93
2023-05-15T15:48:15.110Z,7.25
2023-05-15T15:50:49.088Z,7.30
2023-05-15T15:53:23.249Z,7.45
2023-05-15T15:55:56.727Z,6.50
2023-05-15T15:58:30.247Z,6.55
2023-05-15T16:01:03.185Z,7.50
2023-05-15T16:03:35.939Z,9.63
2023-05-15T16:06:08.451Z,9.98
2023-05-15T16:08:41.524Z,8.05
2023-05-15T16:11:13.908Z,6.60
2023-05-15T16:13:47.737Z,6.55
2023-05-15T16:16:20.721Z,7.13
2023-05-15T16:18:53.080Z,6.50
2023-05-15T16:21:25.569Z,6.50
2023-05-15T16:23:58.299Z,6.53
2023-05-15T16:26:30.931Z,6.00
2023-05-15T16:29:03.914Z,6.10
2023-05-15T16:31:36.737Z,5.45
2023-05-15T16:34:09.728Z,6.65
2023-05-15T16:36:42.511Z,5.70
2023-05-15T16:39:15.766Z,5.07
2023-05-15T16:41:48.476Z,5.85
2023-05-15T16:44:20.688Z,5.72
2023-05-15T16:46:53.591Z,6.22
2023-05-15T16:49:26.778Z,5.90
2023-05-15T16:51:59.582Z,5.03
2023-05-15T16:54:32.144Z,4.90
2023-05-15T16:57:05.047Z,5.07
2023-05-15T16:59:38.009Z,4.25
2023-05-15T17:02:10.333Z,3.97
2023-05-15T17:04:43.435Z,3.88
2023-05-15T17:07:18.195Z,3.70
2023-05-15T17:09:51.011Z,3.55
2023-05-15T17:12:24.410Z,4.10
2023-05-15T17:14:57.107Z,3.83
2023-05-15T17:17:30.248Z,3.90
2023-05-15T17:20:06.672Z,3.83
2023-05-15T17:22:40.126Z,4.20
2023-05-15T17:25:13.106Z,3.75
2023-05-15T17:27:46.118Z,3.92
2023-05-15T17:30:19.369Z,4.15
2023-05-15T17:32:52.791Z,3.80
2023-05-15T17:35:26.735Z,3.30
2023-05-15T17:38:00.847Z,3.72
2023-05-15T17:40:34.298Z,4.00
2023-05-15T17:43:10.245Z,4.40
2023-05-15T17:45:44.304Z,4.30
2023-05-15T17:48:18.978Z,4.80
2023-05-15T17:50:52.645Z,5.13
2023-05-15T17:53:25.439Z,5.45
2023-05-15T17:55:58.240Z,4.78
2023-05-15T17:58:32.327Z,5.10
2023-05-15T18:01:06.105Z,5.00
2023-05-15T18:03:41.678Z,5.10
2023-05-15T18:06:14.751Z,4.90
2023-05-15T18:08:50.588Z,5.30
2023-05-15T18:11:23.604Z,5.22
2023-05-15T18:13:57.064Z,5.13
2023-05-15T18:16:31.380Z,6.00
2023-05-15T18:19:04.352Z,6.30
2023-05-15T18:21:38.166Z,5.50
2023-05-15T18:24:10.832Z,5.80
2023-05-15T18:26:48.728Z,6.78
2023-05-15T18:29:21.450Z,7.03
2023-05-15T18:31:54.970Z,6.85
2023-05-15T18:34:28.757Z,6.45
2023-05-15T18:37:01.957Z,6.70
2023-05-15T18:39:38.688Z,6.40
2023-05-15T18:42:12.951Z,6.55
2023-05-15T18:44:46.107Z,6.80
2023-05-15T18:47:22.085Z,6.60
2023-05-15T18:49:55.565Z,6.10
2023-05-15T18:52:29.910Z,7.28
2023-05-15T18:55:03.119Z,6.30
2023-05-15T18:57:36.863Z,6.15
2023-05-15T19:00:10.904Z,6.95
2023-05-15T19:02:45.810Z,6.18
2023-05-15T19:05:19.776Z,6.80
2023-05-15T19:07:53.440Z,6.50
2023-05-15T19:10:31.030Z,7.22
2023-05-15T19:13:04.624Z,6.55
2023-05-15T19:15:38.040Z,6.78
2023-05-15T19:18:12.175Z,6.35
2023-05-15T19:20:47.054Z,6.70
2023-05-15T19:23:25.393Z,6.53
2023-05-15T19:25:58.951Z,6.88
2023-05-15T19:28:32.110Z,6.25
2023-05-15T19:31:06.263Z,6.55
2023-05-15T19:33:41.923Z,7.25
2023-05-15T19:36:15.626Z,6.65
2023-05-15T19:38:50.261Z,5.95
2023-05-15T19:41:24.075Z,6.78
2023-05-15T19:43:58.501Z,6.70
2023-05-15T19:46:32.950Z,7.28
2023-05-15T19:49:06.337Z,7.05
2023-05-15T19:51:42.555Z,7.18
2023-05-15T19:54:17.080Z,7.18
2023-05-15T19:56:50.129Z,6.50
2023-05-15T19:59:26.040Z,7.30
2023-05-15T20:02:00.586Z,6.70
2023-05-15T20:04:35.320Z,6.60
2023-05-15T20:07:08.880Z,6.88
2023-05-15T20:09:41.989Z,6.70
2023-05-15T20:12:14.436Z,7.18
2023-05-15T20:14:50.937Z,7.43
2023-05-15T20:17:25.962Z,8.20
2023-05-15T20:19:59.515Z,7.70
2023-05-15T20:22:33.445Z,7.05
2023-05-15T20:25:06.794Z,7.22
2023-05-15T20:27:40.673Z,7.20
2023-05-15T20:30:13.809Z,7.03
2023-05-15T20:32:47.028Z,8.35
2023-05-15T20:35:20.998Z,7.63
2023-05-15T20:37:56.544Z,7.03
2023-05-15T20:40:29.361Z,8.25
2023-05-15T20:43:02.277Z,7.78
2023-05-15T20:45:34.490Z,8.48
2023-05-15T20:48:08.632Z,7.93
2023-05-15T20:50:43.116Z,7.85
2023-05-15T20:53:15.649Z,7.75
2023-05-15T20:55:48.610Z,8.95
2023-05-15T20:58:20.848Z,7.72
2023-05-15T21:00:53.233Z,7.70
2023-05-15T21:03:25.572Z,8.10
2023-05-15T21:05:58.355Z,8.77
2023-05-15T21:08:31.536Z,8.25
2023-05-15T21:11:04.182Z,8.70
2023-05-15T21:13:36.969Z,7.97
2023-05-15T21:16:09.622Z,8.60
2023-05-15T21:18:43.762Z,9.88
2023-05-15T21:21:21.578Z,8.88
2023-05-15T21:23:59.256Z,8.10
2023-05-15T21:26:33.857Z,8.80
2023-05-15T21:29:07.126Z,8.27
2023-05-15T21:31:43.950Z,8.25
2023-05-15T21:34:18.770Z,8.52
2023-05-15T21:36:52.227Z,8.50
2023-05-15T21:39:25.411Z,8.27
2023-05-15T21:41:58.307Z,8.15
2023-05-15T21:44:30.917Z,8.25
2023-05-15T21:47:03.349Z,8.40
2023-05-15T21:49:36.889Z,8.35
2023-05-15T21:52:09.369Z,7.85
2023-05-15T21:54:44.066Z,9.13
2023-05-15T21:57:16.444Z,8.27
2023-05-15T21:59:48.900Z,7.97
2023-05-15T22:02:21.192Z,8.68
2023-05-15T22:04:53.706Z,7.78
2023-05-15T22:07:26.471Z,8.82
2023-05-15T22:09:59.105Z,9.88
2023-05-15T22:12:33.240Z,9.77
2023-05-15T22:15:06.209Z,8.75
2023-05-15T22:17:39.369Z,8.65
2023-05-15T22:20:13.843Z,8.95
2023-05-15T22:22:49.045Z,9.20
2023-05-15T22:25:21.691Z,8.43
2023-05-15T22:27:53.896Z,9.07
2023-05-15T22:30:26.292Z,8.00
2023-05-15T22:32:58.945Z,8.73
2023-05-15T22:35:31.177Z,9.05
2023-05-15T22:38:05.723Z,10.25
2023-05-15T22:40:38.315Z,9.85
2023-05-15T22:43:10.647Z,10.40
2023-05-15T22:45:42.818Z,10.05
2023-05-15T22:48:15.486Z,9.57
2023-05-15T22:50:47.725Z,10.63
2023-05-15T22:53:20.004Z,10.38
2023-05-15T22:55:52.362Z,9.98
2023-05-15T22:58:24.773Z,12.15
2023-05-15T23:00:57.061Z,11.68
2023-05-15T23:03:29.143Z,11.20
2023-05-15T23:06:01.332Z,11.10
2023-05-15T23:08:33.419Z,10.18
2023-05-15T23:11:05.633Z,10.73
2023-05-15T23:13:37.634Z,10.90
2023-05-15T23:16:09.932Z,10.95
2023-05-15T23:18:42.196Z,11.75
2023-05-15T23:21:14.342Z,12.52
2023-05-15T23:23:47.004Z,10.48
2023-05-15T23:26:19.177Z,10.93
2023-05-15T23:28:51.617Z,11.20
2023-05-15T23:31:23.691Z,10.52
2023-05-15T23:33:56.029Z,10.73
2023-05-15T23:36:28.143Z,10.75
2023-05-15T23:39:00.181Z,12.48
2023-05-15T23:41:32.202Z,11.23
2023-05-15T23:44:04.470Z,9.38
2023-05-15T23:46:38.116Z,11.30
2023-05-15T23:49:10.396Z,10.15
2023-05-15T23:51:43.706Z,10.60
2023-05-15T23:54:15.792Z,11.95
2023-05-15T23:56:47.755Z,11.35
2023-05-15T23:59:19.792Z,12.30
